Terminal Aerodrome Forecast
Issued by NWS Quad Cities IA IL

Home | Current Version | Previous Version | Text Only | Print | Product List | Glossary On
Versions: 1 2 3 4 5 6 7 8 9 10 11 12 13 14 15 16 17 18 19 20 21 22
000
FTUS43 KDVN 251100 RRA
TAFDBQ
TAF
KDBQ 251140Z 2512/2612 06006KT P6SM BKN060
     FM251600 07007KT 4SM -SN BR BKN030
     FM252000 08009KT 1 1/2SM -SN BR OVC010
     FM252300 06011KT 3/4SM -SN BR OVC004
     FM260300 02010KT 3SM -SN OVC005
     FM260900 02008KT 6SM BR BKN008=

USA.gov is the U.S. government's official web portal to all federal, state and local government web resources and services.